Alvin, Illinois
Current Conditions -  °F | °C
As of 4:35 PM on Thursday 25 Dec 2014 (Local Time) from KDNV Reporting Station
Clear Clear  
Wind Chill: 34°   Ceiling: Unl
Heat Index: 40°   Visibility: 10mi
Dew Point: 34°   Wind: 9mph
Humidity: 80%   Direction: 180°S
Pressure: 30.04"   Gusts: NA
Location:  40.31°N, 87.61°W
Report Text: KDNV 252235Z AUTO 18008KT 10SM CLR 04/01 A3004 RMK AO2 T00430011
Loading
Personal Weather Stations






























Interactive Weather Map New forecast layout! Learn more

10-Day Weather Forecast

Advertisements
Track Severe Weather on mobile